sensor_id;sensor_type;location;lat;lon;timestamp;pressure;altitude;pressure_sealevel;temperature;humidity
70900;BME280;67902;52.154;5.430;2024-01-30T00:00:44;102661.09;;;7.47;100.00
70900;BME280;67902;52.154;5.430;2024-01-30T00:03:10;102662.59;;;7.50;100.00
70900;BME280;67902;52.154;5.430;2024-01-30T00:05:37;102659.59;;;7.45;100.00
70900;BME280;67902;52.154;5.430;2024-01-30T00:08:04;102669.09;;;7.41;100.00
70900;BME280;67902;52.154;5.430;2024-01-30T00:10:30;102667.03;;;7.43;100.00
70900;BME280;67902;52.154;5.430;2024-01-30T00:12:57;102674.47;;;7.41;100.00
70900;BME280;67902;52.154;5.430;2024-01-30T00:15:23;102667.19;;;7.41;100.00
70900;BME280;67902;52.154;5.430;2024-01-30T00:17:50;102661.47;;;7.44;100.00
70900;BME280;67902;52.154;5.430;2024-01-30T00:20:20;102662.31;;;7.45;100.00
70900;BME280;67902;52.154;5.430;2024-01-30T00:22:47;102669.09;;;7.41;100.00
70900;BME280;67902;52.154;5.430;2024-01-30T00:25:13;102668.09;;;7.34;100.00
70900;BME280;67902;52.154;5.430;2024-01-30T00:27:41;102670.78;;;7.34;100.00
70900;BME280;67902;52.154;5.430;2024-01-30T00:30:08;102668.81;;;7.28;100.00
70900;BME280;67902;52.154;5.430;2024-01-30T00:32:34;102664.56;;;7.33;100.00
70900;BME280;67902;52.154;5.430;2024-01-30T00:35:01;102669.78;;;7.35;100.00
70900;BME280;67902;52.154;5.430;2024-01-30T00:37:28;102657.31;;;7.34;100.00
70900;BME280;67902;52.154;5.430;2024-01-30T00:39:54;102656.69;;;7.32;100.00
70900;BME280;67902;52.154;5.430;2024-01-30T00:42:21;102656.00;;;7.30;100.00
70900;BME280;67902;52.154;5.430;2024-01-30T00:44:50;102651.28;;;7.32;100.00
70900;BME280;67902;52.154;5.430;2024-01-30T00:47:17;102656.19;;;7.28;100.00
70900;BME280;67902;52.154;5.430;2024-01-30T00:49:43;102658.22;;;7.26;100.00
70900;BME280;67902;52.154;5.430;2024-01-30T00:52:10;102655.03;;;7.23;100.00
70900;BME280;67902;52.154;5.430;2024-01-30T00:54:37;102657.44;;;7.18;100.00
70900;BME280;67902;52.154;5.430;2024-01-30T00:57:04;102662.16;;;7.16;100.00
70900;BME280;67902;52.154;5.430;2024-01-30T00:59:31;102660.81;;;7.12;100.00
70900;BME280;67902;52.154;5.430;2024-01-30T01:01:57;102664.38;;;7.12;100.00
70900;BME280;67902;52.154;5.430;2024-01-30T01:04:24;102657.13;;;7.13;100.00
70900;BME280;67902;52.154;5.430;2024-01-30T01:06:51;102652.75;;;7.12;100.00
70900;BME280;67902;52.154;5.430;2024-01-30T01:09:17;102651.91;;;7.11;100.00
70900;BME280;67902;52.154;5.430;2024-01-30T01:11:44;102654.94;;;7.08;100.00
70900;BME280;67902;52.154;5.430;2024-01-30T01:14:10;102651.59;;;7.06;100.00
70900;BME280;67902;52.154;5.430;2024-01-30T01:16:37;102641.81;;;7.05;100.00
70900;BME280;67902;52.154;5.430;2024-01-30T01:19:03;102644.41;;;6.98;100.00
70900;BME280;67902;52.154;5.430;2024-01-30T01:21:31;102646.91;;;7.00;100.00
70900;BME280;67902;52.154;5.430;2024-01-30T01:23:57;102640.22;;;6.96;100.00
70900;BME280;67902;52.154;5.430;2024-01-30T01:26:24;102632.59;;;6.99;100.00
70900;BME280;67902;52.154;5.430;2024-01-30T01:28:50;102629.91;;;6.99;100.00
70900;BME280;67902;52.154;5.430;2024-01-30T01:31:17;102622.50;;;7.02;100.00
70900;BME280;67902;52.154;5.430;2024-01-30T01:33:44;102614.09;;;6.96;100.00
70900;BME280;67902;52.154;5.430;2024-01-30T01:36:13;102613.94;;;6.98;100.00
70900;BME280;67902;52.154;5.430;2024-01-30T01:38:39;102625.06;;;6.95;100.00
70900;BME280;67902;52.154;5.430;2024-01-30T01:41:06;102627.31;;;6.83;100.00
70900;BME280;67902;52.154;5.430;2024-01-30T01:43:32;102619.56;;;6.80;100.00
70900;BME280;67902;52.154;5.430;2024-01-30T01:45:59;102626.66;;;6.81;100.00
70900;BME280;67902;52.154;5.430;2024-01-30T01:48:26;102632.03;;;6.81;100.00
70900;BME280;67902;52.154;5.430;2024-01-30T01:50:53;102633.03;;;6.80;100.00
70900;BME280;67902;52.154;5.430;2024-01-30T01:53:20;102628.66;;;6.79;100.00
70900;BME280;67902;52.154;5.430;2024-01-30T01:55:47;102633.03;;;6.80;100.00
70900;BME280;67902;52.154;5.430;2024-01-30T01:58:14;102633.03;;;6.80;100.00
70900;BME280;67902;52.154;5.430;2024-01-30T02:00:41;102631.84;;;6.83;100.00
70900;BME280;67902;52.154;5.430;2024-01-30T02:03:10;102626.47;;;6.83;100.00
70900;BME280;67902;52.154;5.430;2024-01-30T02:05:38;102618.94;;;6.78;100.00
70900;BME280;67902;52.154;5.430;2024-01-30T02:08:06;102631.34;;;6.79;100.00
70900;BME280;67902;52.154;5.430;2024-01-30T02:10:33;102625.50;;;6.76;100.00
70900;BME280;67902;52.154;5.430;2024-01-30T02:13:00;102623.66;;;6.76;100.00
70900;BME280;67902;52.154;5.430;2024-01-30T02:15:27;102626.66;;;6.81;100.00
70900;BME280;67902;52.154;5.430;2024-01-30T02:17:55;102613.50;;;6.86;100.00
70900;BME280;67902;52.154;5.430;2024-01-30T02:20:24;102610.09;;;6.92;100.00
70900;BME280;67902;52.154;5.430;2024-01-30T02:22:54;102618.84;;;6.94;100.00
70900;BME280;67902;52.154;5.430;2024-01-30T02:25:20;102611.16;;;6.83;100.00
70900;BME280;67902;52.154;5.430;2024-01-30T02:27:56;102616.53;;;6.83;100.00
70900;BME280;67902;52.154;5.430;2024-01-30T02:30:22;102619.88;;;6.85;100.00
70900;BME280;67902;52.154;5.430;2024-01-30T02:32:49;102625.97;;;6.87;100.00
70900;BME280;67902;52.154;5.430;2024-01-30T02:35:15;102638.91;;;6.84;100.00
70900;BME280;67902;52.154;5.430;2024-01-30T02:37:42;102632.69;;;6.83;100.00
70900;BME280;67902;52.154;5.430;2024-01-30T02:40:08;102635.38;;;6.83;100.00
70900;BME280;67902;52.154;5.430;2024-01-30T02:42:35;102630.19;;;6.82;100.00
70900;BME280;67902;52.154;5.430;2024-01-30T02:45:01;102623.59;;;6.84;100.00
70900;BME280;67902;52.154;5.430;2024-01-30T02:47:28;102625.75;;;6.89;100.00
70900;BME280;67902;52.154;5.430;2024-01-30T02:49:54;102621.56;;;6.86;100.00
70900;BME280;67902;52.154;5.430;2024-01-30T02:52:22;102615.69;;;6.83;100.00
70900;BME280;67902;52.154;5.430;2024-01-30T02:54:48;102603.03;;;6.91;100.00
70900;BME280;67902;52.154;5.430;2024-01-30T02:57:15;102592.91;;;6.93;100.00
70900;BME280;67902;52.154;5.430;2024-01-30T02:59:41;102593.59;;;6.95;100.00
70900;BME280;67902;52.154;5.430;2024-01-30T03:02:08;102598.47;;;6.92;100.00
70900;BME280;67902;52.154;5.430;2024-01-30T03:04:34;102596.69;;;6.84;100.00
70900;BME280;67902;52.154;5.430;2024-01-30T03:07:01;102591.66;;;6.81;100.00
70900;BME280;67902;52.154;5.430;2024-01-30T03:09:28;102588.47;;;6.78;100.00
70900;BME280;67902;52.154;5.430;2024-01-30T03:11:54;102584.09;;;6.77;100.00
70900;BME280;67902;52.154;5.430;2024-01-30T03:14:21;102588.81;;;6.75;100.00
70900;BME280;67902;52.154;5.430;2024-01-30T03:16:47;102588.16;;;6.73;100.00
70900;BME280;67902;52.154;5.430;2024-01-30T03:19:14;102579.06;;;6.74;100.00
70900;BME280;67902;52.154;5.430;2024-01-30T03:21:40;102573.50;;;6.75;100.00
70900;BME280;67902;52.154;5.430;2024-01-30T03:24:07;102565.09;;;6.78;100.00
70900;BME280;67902;52.154;5.430;2024-01-30T03:26:33;102565.56;;;6.82;100.00
70900;BME280;67902;52.154;5.430;2024-01-30T03:29:00;102579.19;;;6.80;100.00
70900;BME280;67902;52.154;5.430;2024-01-30T03:31:26;102579.53;;;6.77;100.00
70900;BME280;67902;52.154;5.430;2024-01-30T03:33:53;102578.59;;;6.70;100.00
70900;BME280;67902;52.154;5.430;2024-01-30T03:36:20;102581.97;;;6.64;100.00
70900;BME280;67902;52.154;5.430;2024-01-30T03:38:46;102575.91;;;6.70;100.00
70900;BME280;67902;52.154;5.430;2024-01-30T03:41:13;102569.13;;;6.74;100.00
70900;BME280;67902;52.154;5.430;2024-01-30T03:43:40;102567.22;;;6.83;100.00
70900;BME280;67902;52.154;5.430;2024-01-30T03:46:07;102565.16;;;6.93;100.00
70900;BME280;67902;52.154;5.430;2024-01-30T03:48:33;102558.03;;;7.00;100.00
70900;BME280;67902;52.154;5.430;2024-01-30T03:51:00;102561.03;;;7.05;100.00
70900;BME280;67902;52.154;5.430;2024-01-30T03:53:26;102556.97;;;7.09;100.00
70900;BME280;67902;52.154;5.430;2024-01-30T03:55:53;102554.78;;;7.13;100.00
70900;BME280;67902;52.154;5.430;2024-01-30T03:58:20;102556.13;;;7.09;100.00
70900;BME280;67902;52.154;5.430;2024-01-30T04:00:46;102548.25;;;7.07;100.00
70900;BME280;67902;52.154;5.430;2024-01-30T04:03:14;102548.06;;;7.09;100.00
70900;BME280;67902;52.154;5.430;2024-01-30T04:05:42;102561.50;;;7.09;100.00
70900;BME280;67902;52.154;5.430;2024-01-30T04:08:09;102561.88;;;7.06;100.00
70900;BME280;67902;52.154;5.430;2024-01-30T04:10:35;102567.75;;;7.09;100.00
70900;BME280;67902;52.154;5.430;2024-01-30T04:13:02;102559.13;;;7.14;100.00
70900;BME280;67902;52.154;5.430;2024-01-30T04:15:28;102576.63;;;7.18;100.00
70900;BME280;67902;52.154;5.430;2024-01-30T04:17:58;102561.94;;;7.20;100.00
70900;BME280;67902;52.154;5.430;2024-01-30T04:20:25;102567.97;;;7.22;100.00
70900;BME280;67902;52.154;5.430;2024-01-30T04:22:52;102562.88;;;7.27;100.00
70900;BME280;67902;52.154;5.430;2024-01-30T04:25:18;102565.22;;;7.30;100.00
70900;BME280;67902;52.154;5.430;2024-01-30T04:27:45;102563.22;;;7.32;100.00
70900;BME280;67902;52.154;5.430;2024-01-30T04:30:12;102555.22;;;7.39;100.00
70900;BME280;67902;52.154;5.430;2024-01-30T04:32:38;102552.00;;;7.43;100.00
70900;BME280;67902;52.154;5.430;2024-01-30T04:35:05;102547.25;;;7.45;100.00
70900;BME280;67902;52.154;5.430;2024-01-30T04:37:37;102545.03;;;7.49;100.00
70900;BME280;67902;52.154;5.430;2024-01-30T04:40:03;102537.13;;;7.47;100.00
70900;BME280;67902;52.154;5.430;2024-01-30T04:42:31;102536.97;;;7.49;100.00
70900;BME280;67902;52.154;5.430;2024-01-30T04:44:58;102535.28;;;7.48;100.00
70900;BME280;67902;52.154;5.430;2024-01-30T04:47:24;102534.63;;;7.46;100.00
70900;BME280;67902;52.154;5.430;2024-01-30T04:49:51;102521.16;;;7.46;100.00
70900;BME280;67902;52.154;5.430;2024-01-30T04:52:18;102527.75;;;7.43;100.00
70900;BME280;67902;52.154;5.430;2024-01-30T04:54:44;102533.78;;;7.45;100.00
70900;BME280;67902;52.154;5.430;2024-01-30T04:57:11;102543.56;;;7.46;100.00
70900;BME280;67902;52.154;5.430;2024-01-30T04:59:39;102533.41;;;7.48;100.00
70900;BME280;67902;52.154;5.430;2024-01-30T05:02:06;102535.28;;;7.48;100.00
70900;BME280;67902;52.154;5.430;2024-01-30T05:04:33;102540.31;;;7.51;100.00
70900;BME280;67902;52.154;5.430;2024-01-30T05:07:00;102541.78;;;7.53;100.00
70900;BME280;67902;52.154;5.430;2024-01-30T05:09:26;102545.34;;;7.54;100.00
70900;BME280;67902;52.154;5.430;2024-01-30T05:11:53;102542.28;;;7.57;100.00
70900;BME280;67902;52.154;5.430;2024-01-30T05:14:19;102541.63;;;7.55;100.00
70900;BME280;67902;52.154;5.430;2024-01-30T05:16:46;102530.84;;;7.55;100.00
70900;BME280;67902;52.154;5.430;2024-01-30T05:19:14;102540.78;;;7.54;100.00
70900;BME280;67902;52.154;5.430;2024-01-30T05:21:41;102542.44;;;7.55;100.00
70900;BME280;67902;52.154;5.430;2024-01-30T05:24:08;102543.94;;;7.58;100.00
70900;BME280;67902;52.154;5.430;2024-01-30T05:26:36;102537.53;;;7.59;100.00
70900;BME280;67902;52.154;5.430;2024-01-30T05:29:02;102522.69;;;7.63;100.00
70900;BME280;67902;52.154;5.430;2024-01-30T05:31:29;102514.38;;;7.65;100.00
70900;BME280;67902;52.154;5.430;2024-01-30T05:33:56;102510.31;;;7.69;100.00
70900;BME280;67902;52.154;5.430;2024-01-30T05:36:22;102504.94;;;7.69;100.00
70900;BME280;67902;52.154;5.430;2024-01-30T05:38:49;102502.03;;;7.70;100.00
70900;BME280;67902;52.154;5.430;2024-01-30T05:41:15;102510.75;;;7.72;100.00
70900;BME280;67902;52.154;5.430;2024-01-30T05:43:42;102512.44;;;7.73;100.00
70900;BME280;67902;52.154;5.430;2024-01-30T05:46:08;102526.41;;;7.77;100.00
70900;BME280;67902;52.154;5.430;2024-01-30T05:48:35;102530.97;;;7.76;100.00
70900;BME280;67902;52.154;5.430;2024-01-30T05:51:02;102539.91;;;7.77;100.00
70900;BME280;67902;52.154;5.430;2024-01-30T05:53:30;102522.88;;;7.76;100.00
70900;BME280;67902;52.154;5.430;2024-01-30T05:55:57;102520.19;;;7.76;100.00
70900;BME280;67902;52.154;5.430;2024-01-30T05:58:23;102526.78;;;7.74;100.00
70900;BME280;67902;52.154;5.430;2024-01-30T06:00:50;102532.34;;;7.72;100.00
70900;BME280;67902;52.154;5.430;2024-01-30T06:03:17;102536.06;;;7.71;100.00
70900;BME280;67902;52.154;5.430;2024-01-30T06:05:43;102536.06;;;7.71;100.00
70900;BME280;67902;52.154;5.430;2024-01-30T06:08:09;102538.78;;;7.71;100.00
70900;BME280;67902;52.154;5.430;2024-01-30T06:10:36;102534.38;;;7.70;100.00
70900;BME280;67902;52.154;5.430;2024-01-30T06:13:03;102541.75;;;7.76;100.00
70900;BME280;67902;52.154;5.430;2024-01-30T06:15:29;102525.19;;;7.79;100.00
70900;BME280;67902;52.154;5.430;2024-01-30T06:17:56;102530.41;;;7.81;100.00
70900;BME280;67902;52.154;5.430;2024-01-30T06:20:22;102529.59;;;7.80;100.00
70900;BME280;67902;52.154;5.430;2024-01-30T06:22:49;102528.19;;;7.84;100.00
70900;BME280;67902;52.154;5.430;2024-01-30T06:25:16;102530.88;;;7.84;100.00
70900;BME280;67902;52.154;5.430;2024-01-30T06:27:43;102520.44;;;7.81;100.00
70900;BME280;67902;52.154;5.430;2024-01-30T06:30:10;102524.84;;;7.82;100.00
70900;BME280;67902;52.154;5.430;2024-01-30T06:32:37;102523.16;;;7.81;100.00
70900;BME280;67902;52.154;5.430;2024-01-30T06:35:05;102527.91;;;7.79;100.00
70900;BME280;67902;52.154;5.430;2024-01-30T06:37:32;102539.53;;;7.80;100.00
70900;BME280;67902;52.154;5.430;2024-01-30T06:39:58;102542.38;;;7.78;100.00
70900;BME280;67902;52.154;5.430;2024-01-30T06:42:25;102537.69;;;7.80;100.00
70900;BME280;67902;52.154;5.430;2024-01-30T06:44:51;102536.25;;;7.84;100.00
70900;BME280;67902;52.154;5.430;2024-01-30T06:47:18;102544.56;;;7.83;100.00
70900;BME280;67902;52.154;5.430;2024-01-30T06:49:45;102543.34;;;7.85;100.00
70900;BME280;67902;52.154;5.430;2024-01-30T06:52:11;102546.69;;;7.87;100.00
70900;BME280;67902;52.154;5.430;2024-01-30T06:54:38;102551.06;;;7.88;100.00
70900;BME280;67902;52.154;5.430;2024-01-30T06:57:06;102539.25;;;7.89;100.00
70900;BME280;67902;52.154;5.430;2024-01-30T06:59:38;102539.44;;;7.88;100.00
70900;BME280;67902;52.154;5.430;2024-01-30T07:02:10;102543.34;;;7.85;100.00
70900;BME280;67902;52.154;5.430;2024-01-30T07:04:37;102543.78;;;7.89;100.00
70900;BME280;67902;52.154;5.430;2024-01-30T07:07:08;102554.56;;;7.89;100.00
70900;BME280;67902;52.154;5.430;2024-01-30T07:09:39;102552.34;;;7.92;100.00
70900;BME280;67902;52.154;5.430;2024-01-30T07:12:06;102544.63;;;7.89;100.00
70900;BME280;67902;52.154;5.430;2024-01-30T07:14:33;102540.56;;;7.93;100.00
70900;BME280;67902;52.154;5.430;2024-01-30T07:16:59;102538.72;;;7.94;100.00
70900;BME280;67902;52.154;5.430;2024-01-30T07:19:26;102556.75;;;7.93;100.00
70900;BME280;67902;52.154;5.430;2024-01-30T07:21:52;102553.84;;;7.95;100.00
70900;BME280;67902;52.154;5.430;2024-01-30T07:24:19;102543.25;;;7.93;100.00
70900;BME280;67902;52.154;5.430;2024-01-30T07:26:46;102561.41;;;7.99;100.00
70900;BME280;67902;52.154;5.430;2024-01-30T07:29:12;102557.66;;;8.00;100.00
70900;BME280;67902;52.154;5.430;2024-01-30T07:31:39;102548.94;;;7.98;100.00
70900;BME280;67902;52.154;5.430;2024-01-30T07:34:07;102564.94;;;8.00;100.00
70900;BME280;67902;52.154;5.430;2024-01-30T07:36:33;102565.59;;;8.02;100.00
70900;BME280;67902;52.154;5.430;2024-01-30T07:38:59;102565.38;;;8.03;100.00
70900;BME280;67902;52.154;5.430;2024-01-30T07:41:26;102573.97;;;8.07;100.00
70900;BME280;67902;52.154;5.430;2024-01-30T07:43:53;102570.69;;;8.11;100.00
70900;BME280;67902;52.154;5.430;2024-01-30T07:46:20;102580.09;;;8.15;100.00
70900;BME280;67902;52.154;5.430;2024-01-30T07:48:46;102577.03;;;8.18;100.00
70900;BME280;67902;52.154;5.430;2024-01-30T07:51:13;102577.31;;;8.24;100.00
70900;BME280;67902;52.154;5.430;2024-01-30T07:53:40;102583.84;;;8.29;100.00
70900;BME280;67902;52.154;5.430;2024-01-30T07:56:08;102587.66;;;8.35;100.00
70900;BME280;67902;52.154;5.430;2024-01-30T07:58:34;102581.91;;;8.38;100.00
70900;BME280;67902;52.154;5.430;2024-01-30T08:01:01;102587.78;;;8.41;100.00
70900;BME280;67902;52.154;5.430;2024-01-30T08:03:28;102595.31;;;8.46;100.00
70900;BME280;67902;52.154;5.430;2024-01-30T08:05:55;102595.78;;;8.49;100.00
70900;BME280;67902;52.154;5.430;2024-01-30T08:08:22;102585.25;;;8.54;100.00
70900;BME280;67902;52.154;5.430;2024-01-30T08:10:48;102591.38;;;8.63;100.00
70900;BME280;67902;52.154;5.430;2024-01-30T08:13:16;102591.00;;;8.66;100.00
70900;BME280;67902;52.154;5.430;2024-01-30T08:15:43;102583.16;;;8.71;100.00
70900;BME280;67902;52.154;5.430;2024-01-30T08:18:09;102591.91;;;8.73;100.00
70900;BME280;67902;52.154;5.430;2024-01-30T08:20:36;102591.53;;;8.76;100.00
70900;BME280;67902;52.154;5.430;2024-01-30T08:23:02;102587.44;;;8.80;100.00
70900;BME280;67902;52.154;5.430;2024-01-30T08:25:29;102587.91;;;8.84;100.00
70900;BME280;67902;52.154;5.430;2024-01-30T08:27:56;102591.72;;;8.89;100.00
70900;BME280;67902;52.154;5.430;2024-01-30T08:30:24;102588.44;;;8.94;100.00
70900;BME280;67902;52.154;5.430;2024-01-30T08:32:51;102588.50;;;9.00;100.00
70900;BME280;67902;52.154;5.430;2024-01-30T08:35:18;102592.50;;;9.04;100.00
70900;BME280;67902;52.154;5.430;2024-01-30T08:37:45;102594.81;;;9.07;100.00
70900;BME280;67902;52.154;5.430;2024-01-30T08:40:12;102598.81;;;9.11;100.00
70900;BME280;67902;52.154;5.430;2024-01-30T08:42:38;102593.47;;;9.18;100.00
70900;BME280;67902;52.154;5.430;2024-01-30T08:45:05;102586.47;;;9.23;100.00
70900;BME280;67902;52.154;5.430;2024-01-30T08:47:32;102591.47;;;9.26;100.00
70900;BME280;67902;52.154;5.430;2024-01-30T08:49:59;102595.09;;;9.33;100.00
70900;BME280;67902;52.154;5.430;2024-01-30T08:52:26;102596.84;;;9.41;100.00
70900;BME280;67902;52.154;5.430;2024-01-30T08:54:53;102596.69;;;9.49;100.00
70900;BME280;67902;52.154;5.430;2024-01-30T08:57:20;102589.28;;;9.58;100.00
70900;BME280;67902;52.154;5.430;2024-01-30T08:59:47;102598.31;;;9.65;100.00
70900;BME280;67902;52.154;5.430;2024-01-30T09:02:14;102601.25;;;9.70;100.00
70900;BME280;67902;52.154;5.430;2024-01-30T09:04:42;102602.34;;;9.75;100.00
70900;BME280;67902;52.154;5.430;2024-01-30T09:07:09;102598.47;;;9.84;100.00
70900;BME280;67902;52.154;5.430;2024-01-30T09:09:41;102601.91;;;10.00;100.00
70900;BME280;67902;52.154;5.430;2024-01-30T09:12:07;102601.06;;;10.20;100.00
70900;BME280;67902;52.154;5.430;2024-01-30T09:14:37;102593.50;;;10.43;100.00
70900;BME280;67902;52.154;5.430;2024-01-30T09:17:03;102601.06;;;10.61;100.00
70900;BME280;67902;52.154;5.430;2024-01-30T09:19:30;102601.56;;;10.71;100.00
70900;BME280;67902;52.154;5.430;2024-01-30T09:21:57;102611.81;;;10.82;100.00
70900;BME280;67902;52.154;5.430;2024-01-30T09:24:25;102613.31;;;10.91;100.00
70900;BME280;67902;52.154;5.430;2024-01-30T09:26:52;102618.47;;;10.86;100.00
70900;BME280;67902;52.154;5.430;2024-01-30T09:29:19;102621.19;;;10.86;99.71
70900;BME280;67902;52.154;5.430;2024-01-30T09:31:45;102615.78;;;10.86;100.00
70900;BME280;67902;52.154;5.430;2024-01-30T09:34:13;102611.19;;;10.87;99.54
70900;BME280;67902;52.154;5.430;2024-01-30T09:36:39;102612.88;;;10.88;99.59
70900;BME280;67902;52.154;5.430;2024-01-30T09:39:06;102622.88;;;10.87;99.38
70900;BME280;67902;52.154;5.430;2024-01-30T09:41:41;102622.03;;;10.80;98.93
70900;BME280;67902;52.154;5.430;2024-01-30T09:44:11;102623.88;;;10.80;99.53
70900;BME280;67902;52.154;5.430;2024-01-30T09:46:40;102627.84;;;10.84;99.33
70900;BME280;67902;52.154;5.430;2024-01-30T09:49:07;102636.81;;;10.84;98.58
70900;BME280;67902;52.154;5.430;2024-01-30T09:51:35;102633.94;;;10.86;98.72
70900;BME280;67902;52.154;5.430;2024-01-30T09:54:02;102635.34;;;10.82;98.64
70900;BME280;67902;52.154;5.430;2024-01-30T09:56:29;102636.38;;;10.81;98.95
70900;BME280;67902;52.154;5.430;2024-01-30T09:58:55;102630.97;;;10.81;99.00
70900;BME280;67902;52.154;5.430;2024-01-30T10:01:22;102642.47;;;10.83;98.27
70900;BME280;67902;52.154;5.430;2024-01-30T10:03:50;102641.41;;;10.84;98.33
70900;BME280;67902;52.154;5.430;2024-01-30T10:06:19;102646.63;;;10.85;98.26
70900;BME280;67902;52.154;5.430;2024-01-30T10:08:48;102638.28;;;10.87;98.34
70900;BME280;67902;52.154;5.430;2024-01-30T10:11:15;102643.72;;;10.87;97.41
70900;BME280;67902;52.154;5.430;2024-01-30T10:13:41;102639.97;;;10.88;98.19
70900;BME280;67902;52.154;5.430;2024-01-30T10:16:08;102637.88;;;10.90;97.72
70900;BME280;67902;52.154;5.430;2024-01-30T10:18:34;102639.97;;;10.88;97.84
70900;BME280;67902;52.154;5.430;2024-01-30T10:21:01;102635.00;;;10.91;97.43
70900;BME280;67902;52.154;5.430;2024-01-30T10:23:28;102641.06;;;11.00;97.61
70900;BME280;67902;52.154;5.430;2024-01-30T10:26:03;102630.47;;;11.05;97.62
70900;BME280;67902;52.154;5.430;2024-01-30T10:28:30;102617.13;;;11.10;96.89
70900;BME280;67902;52.154;5.430;2024-01-30T10:30:58;102627.41;;;11.28;96.74
70900;BME280;67902;52.154;5.430;2024-01-30T10:33:30;102630.16;;;11.47;95.99
70900;BME280;67902;52.154;5.430;2024-01-30T10:36:04;102645.03;;;11.78;94.73
70900;BME280;67902;52.154;5.430;2024-01-30T10:38:32;102633.31;;;11.71;93.37
70900;BME280;67902;52.154;5.430;2024-01-30T10:41:00;102630.59;;;11.71;94.13
70900;BME280;67902;52.154;5.430;2024-01-30T10:43:31;102615.38;;;12.02;92.88
70900;BME280;67902;52.154;5.430;2024-01-30T10:46:10;102629.16;;;11.75;92.74
70900;BME280;67902;52.154;5.430;2024-01-30T10:48:42;102635.78;;;11.65;93.40
70900;BME280;67902;52.154;5.430;2024-01-30T10:51:11;102634.75;;;11.53;93.66
70900;BME280;67902;52.154;5.430;2024-01-30T10:53:39;102638.06;;;11.42;94.17
70900;BME280;67902;52.154;5.430;2024-01-30T10:56:06;102643.47;;;11.36;94.36
70900;BME280;67902;52.154;5.430;2024-01-30T10:58:34;102642.22;;;11.38;94.54
70900;BME280;67902;52.154;5.430;2024-01-30T11:01:01;102639.97;;;11.61;93.79
70900;BME280;67902;52.154;5.430;2024-01-30T11:03:29;102644.00;;;11.79;92.90
70900;BME280;67902;52.154;5.430;2024-01-30T11:05:59;102637.31;;;11.75;90.76
70900;BME280;67902;52.154;5.430;2024-01-30T11:08:26;102637.53;;;11.73;90.40
70900;BME280;67902;52.154;5.430;2024-01-30T11:10:58;102659.44;;;11.72;90.64
70900;BME280;67902;52.154;5.430;2024-01-30T11:13:31;102648.56;;;11.85;89.56
70900;BME280;67902;52.154;5.430;2024-01-30T11:16:05;102648.56;;;12.04;89.57
70900;BME280;67902;52.154;5.430;2024-01-30T11:18:33;102658.97;;;12.60;86.24
70900;BME280;67902;52.154;5.430;2024-01-30T11:20:59;102663.38;;;13.56;82.63
70900;BME280;67902;52.154;5.430;2024-01-30T11:23:28;102650.63;;;13.19;81.29
70900;BME280;67902;52.154;5.430;2024-01-30T11:25:56;102646.97;;;13.38;79.85
70900;BME280;67902;52.154;5.430;2024-01-30T11:28:23;102651.56;;;12.87;81.09
70900;BME280;67902;52.154;5.430;2024-01-30T11:30:50;102659.22;;;12.39;81.72
70900;BME280;67902;52.154;5.430;2024-01-30T11:33:29;102665.91;;;11.97;82.77
70900;BME280;67902;52.154;5.430;2024-01-30T11:36:00;102665.88;;;11.71;82.05
70900;BME280;67902;52.154;5.430;2024-01-30T11:38:28;102678.16;;;11.53;82.93
70900;BME280;67902;52.154;5.430;2024-01-30T11:40:55;102678.94;;;11.41;83.52
70900;BME280;67902;52.154;5.430;2024-01-30T11:43:23;102680.63;;;11.42;83.90
70900;BME280;67902;52.154;5.430;2024-01-30T11:45:50;102675.88;;;11.63;83.77
70900;BME280;67902;52.154;5.430;2024-01-30T11:48:17;102683.84;;;11.85;82.77
70900;BME280;67902;52.154;5.430;2024-01-30T11:50:44;102687.59;;;12.62;80.69
70900;BME280;67902;52.154;5.430;2024-01-30T11:53:11;102685.13;;;12.02;79.61
70900;BME280;67902;52.154;5.430;2024-01-30T11:55:37;102689.84;;;11.47;81.74
70900;BME280;67902;52.154;5.430;2024-01-30T11:58:04;102690.97;;;11.19;82.01
70900;BME280;67902;52.154;5.430;2024-01-30T12:00:31;102690.69;;;11.00;83.40
70900;BME280;67902;52.154;5.430;2024-01-30T12:03:00;102690.06;;;10.98;84.01
70900;BME280;67902;52.154;5.430;2024-01-30T12:05:28;102697.59;;;11.03;84.25
70900;BME280;67902;52.154;5.430;2024-01-30T12:07:54;102701.56;;;11.07;83.87
70900;BME280;67902;52.154;5.430;2024-01-30T12:10:21;102702.59;;;11.06;84.11
70900;BME280;67902;52.154;5.430;2024-01-30T12:12:49;102697.75;;;10.95;83.78
70900;BME280;67902;52.154;5.430;2024-01-30T12:15:16;102694.56;;;10.85;83.95
70900;BME280;67902;52.154;5.430;2024-01-30T12:17:44;102701.69;;;10.86;84.19
70900;BME280;67902;52.154;5.430;2024-01-30T12:20:13;102705.19;;;10.80;83.81
70900;BME280;67902;52.154;5.430;2024-01-30T12:22:42;102712.03;;;10.76;83.81
70900;BME280;67902;52.154;5.430;2024-01-30T12:25:13;102715.75;;;10.68;84.31
70900;BME280;67902;52.154;5.430;2024-01-30T12:27:42;102731.84;;;10.48;83.77
70900;BME280;67902;52.154;5.430;2024-01-30T12:30:11;102737.56;;;10.32;84.93
70900;BME280;67902;52.154;5.430;2024-01-30T12:32:41;102740.75;;;10.15;86.05
70900;BME280;67902;52.154;5.430;2024-01-30T12:35:12;102756.03;;;10.08;87.67
70900;BME280;67902;52.154;5.430;2024-01-30T12:37:39;102758.44;;;9.96;87.53
70900;BME280;67902;52.154;5.430;2024-01-30T12:40:10;102753.13;;;9.88;87.58
70900;BME280;67902;52.154;5.430;2024-01-30T12:42:37;102756.25;;;9.85;87.57
70900;BME280;67902;52.154;5.430;2024-01-30T12:45:04;102753.53;;;9.85;87.62
70900;BME280;67902;52.154;5.430;2024-01-30T12:47:31;102752.88;;;9.83;87.31
70900;BME280;67902;52.154;5.430;2024-01-30T12:50:01;102760.81;;;9.84;87.11